Birkbeck, Illinois
Current Conditions -  °F | °C
As of 6:55 PM on Monday 26 Jan 2015 (Local Time) from KAAA Reporting Station
Haze Haze  
Wind Chill: 27°   Ceiling: 1900
Heat Index: 32°   Visibility: 4mi
Dew Point: 31°   Wind: 5mph
Humidity: 94%   Direction: 200°SSW
Pressure: 29.9"   Gusts: NA
Location:  40.143°N, 88.9637°W
Report Text: KAAA 270055Z AUTO 20004KT 4SM BR SCT007 OVC019 00/M01 A2990 RMK AO2 T00001008
Loading
Personal Weather Stations






























Interactive Weather Map New forecast layout! Learn more

10-Day Weather Forecast

Advertisements
Track Severe Weather on mobile